sensor_id;sensor_type;location;lat;lon;timestamp;temperature;humidity
23053;DHT22;11694;-36.632;-64.318;2022-12-29T00:00:18;23.60;23.70
23053;DHT22;11694;-36.632;-64.318;2022-12-29T00:02:45;23.40;35.30
23053;DHT22;11694;-36.632;-64.318;2022-12-29T00:05:12;23.20;43.30
23053;DHT22;11694;-36.632;-64.318;2022-12-29T00:07:39;23.10;81.80
23053;DHT22;11694;-36.632;-64.318;2022-12-29T00:10:08;22.80;81.60
23053;DHT22;11694;-36.632;-64.318;2022-12-29T00:12:38;22.60;95.70
23053;DHT22;11694;-36.632;-64.318;2022-12-29T00:15:24;22.40;99.90
23053;DHT22;11694;-36.632;-64.318;2022-12-29T00:18:06;22.40;99.90
23053;DHT22;11694;-36.632;-64.318;2022-12-29T00:20:35;22.30;95.90
23053;DHT22;11694;-36.632;-64.318;2022-12-29T00:23:20;22.10;99.90
23053;DHT22;11694;-36.632;-64.318;2022-12-29T00:26:17;22.00;99.90
23053;DHT22;11694;-36.632;-64.318;2022-12-29T00:29:03;21.70;99.90
23053;DHT22;11694;-36.632;-64.318;2022-12-29T00:31:49;21.40;99.90
23053;DHT22;11694;-36.632;-64.318;2022-12-29T00:34:34;20.80;99.90
23053;DHT22;11694;-36.632;-64.318;2022-12-29T00:37:19;20.30;99.90
23053;DHT22;11694;-36.632;-64.318;2022-12-29T00:40:06;20.20;99.90
23053;DHT22;11694;-36.632;-64.318;2022-12-29T00:42:51;20.20;99.90
23053;DHT22;11694;-36.632;-64.318;2022-12-29T00:45:36;20.10;99.90
23053;DHT22;11694;-36.632;-64.318;2022-12-29T00:48:03;20.20;99.90
23053;DHT22;11694;-36.632;-64.318;2022-12-29T00:50:30;20.00;99.90
23053;DHT22;11694;-36.632;-64.318;2022-12-29T00:52:57;19.70;99.90
23053;DHT22;11694;-36.632;-64.318;2022-12-29T00:55:25;19.40;99.90
23053;DHT22;11694;-36.632;-64.318;2022-12-29T00:57:52;19.50;99.90
23053;DHT22;11694;-36.632;-64.318;2022-12-29T01:00:19;19.50;99.90
23053;DHT22;11694;-36.632;-64.318;2022-12-29T01:02:46;19.40;99.90
23053;DHT22;11694;-36.632;-64.318;2022-12-29T01:05:13;19.40;99.90
23053;DHT22;11694;-36.632;-64.318;2022-12-29T01:07:40;19.20;99.90
23053;DHT22;11694;-36.632;-64.318;2022-12-29T01:10:07;19.00;99.90
23053;DHT22;11694;-36.632;-64.318;2022-12-29T01:12:37;19.00;99.90
23053;DHT22;11694;-36.632;-64.318;2022-12-29T01:15:09;18.90;99.90
23053;DHT22;11694;-36.632;-64.318;2022-12-29T01:17:36;18.90;99.90
23053;DHT22;11694;-36.632;-64.318;2022-12-29T01:20:04;19.00;99.90
23053;DHT22;11694;-36.632;-64.318;2022-12-29T01:22:31;19.00;99.90
23053;DHT22;11694;-36.632;-64.318;2022-12-29T01:24:58;18.90;99.90
23053;DHT22;11694;-36.632;-64.318;2022-12-29T01:27:25;18.70;99.90
23053;DHT22;11694;-36.632;-64.318;2022-12-29T01:29:52;18.60;99.90
23053;DHT22;11694;-36.632;-64.318;2022-12-29T01:32:20;18.60;99.90
23053;DHT22;11694;-36.632;-64.318;2022-12-29T01:34:47;18.50;99.90
23053;DHT22;11694;-36.632;-64.318;2022-12-29T01:37:14;18.30;99.90
23053;DHT22;11694;-36.632;-64.318;2022-12-29T01:39:41;18.10;99.90
23053;DHT22;11694;-36.632;-64.318;2022-12-29T01:42:19;18.00;99.90
23053;DHT22;11694;-36.632;-64.318;2022-12-29T01:50:05;17.50;1.00
23053;DHT22;11694;-36.632;-64.318;2022-12-29T01:52:34;17.30;1.00
23053;DHT22;11694;-36.632;-64.318;2022-12-29T01:55:03;17.10;1.00
23053;DHT22;11694;-36.632;-64.318;2022-12-29T01:57:38;17.20;1.00
23053;DHT22;11694;-36.632;-64.318;2022-12-29T02:00:12;17.20;1.00
23053;DHT22;11694;-36.632;-64.318;2022-12-29T02:02:44;17.30;1.00
23053;DHT22;11694;-36.632;-64.318;2022-12-29T02:05:20;17.20;1.00
23053;DHT22;11694;-36.632;-64.318;2022-12-29T02:07:49;17.30;1.00
23053;DHT22;11694;-36.632;-64.318;2022-12-29T02:10:21;17.20;1.00
23053;DHT22;11694;-36.632;-64.318;2022-12-29T02:12:50;17.00;1.00
23053;DHT22;11694;-36.632;-64.318;2022-12-29T02:15:20;16.70;1.00
23053;DHT22;11694;-36.632;-64.318;2022-12-29T02:29:30;16.80;1.00
23053;DHT22;11694;-36.632;-64.318;2022-12-29T02:32:13;16.80;1.00
23053;DHT22;11694;-36.632;-64.318;2022-12-29T02:37:54;16.60;1.00
23053;DHT22;11694;-36.632;-64.318;2022-12-29T02:40:34;16.50;1.00
23053;DHT22;11694;-36.632;-64.318;2022-12-29T02:43:19;16.40;1.00
23053;DHT22;11694;-36.632;-64.318;2022-12-29T02:53:42;15.70;28.60
23053;DHT22;11694;-36.632;-64.318;2022-12-29T02:56:27;15.80;28.10
23053;DHT22;11694;-36.632;-64.318;2022-12-29T02:58:54;15.70;20.80
23053;DHT22;11694;-36.632;-64.318;2022-12-29T03:01:37;15.70;24.50
23053;DHT22;11694;-36.632;-64.318;2022-12-29T03:04:46;15.90;8.30
23053;DHT22;11694;-36.632;-64.318;2022-12-29T03:07:38;16.00;1.00
23053;DHT22;11694;-36.632;-64.318;2022-12-29T03:10:25;15.90;1.50
23053;DHT22;11694;-36.632;-64.318;2022-12-29T03:21:24;15.50;22.90
23053;DHT22;11694;-36.632;-64.318;2022-12-29T03:24:17;15.40;25.70
23053;DHT22;11694;-36.632;-64.318;2022-12-29T03:26:46;15.60;23.00
23053;DHT22;11694;-36.632;-64.318;2022-12-29T03:29:15;15.50;31.10
23053;DHT22;11694;-36.632;-64.318;2022-12-29T03:31:44;15.30;52.70
23053;DHT22;11694;-36.632;-64.318;2022-12-29T03:34:12;15.20;61.60
23053;DHT22;11694;-36.632;-64.318;2022-12-29T03:36:50;15.00;62.40
23053;DHT22;11694;-36.632;-64.318;2022-12-29T03:39:21;14.90;73.80
23053;DHT22;11694;-36.632;-64.318;2022-12-29T03:41:52;14.80;76.70
23053;DHT22;11694;-36.632;-64.318;2022-12-29T03:44:21;14.70;56.60
23053;DHT22;11694;-36.632;-64.318;2022-12-29T03:46:57;14.90;44.80
23053;DHT22;11694;-36.632;-64.318;2022-12-29T03:49:24;15.10;34.30
23053;DHT22;11694;-36.632;-64.318;2022-12-29T03:51:52;15.20;24.60
23053;DHT22;11694;-36.632;-64.318;2022-12-29T03:54:19;15.30;19.60
23053;DHT22;11694;-36.632;-64.318;2022-12-29T03:56:46;15.30;25.10
23053;DHT22;11694;-36.632;-64.318;2022-12-29T03:59:13;15.40;26.10
23053;DHT22;11694;-36.632;-64.318;2022-12-29T04:01:40;15.40;21.10
23053;DHT22;11694;-36.632;-64.318;2022-12-29T04:04:07;15.30;20.50
23053;DHT22;11694;-36.632;-64.318;2022-12-29T04:06:34;15.10;19.80
23053;DHT22;11694;-36.632;-64.318;2022-12-29T04:09:01;15.00;33.00
23053;DHT22;11694;-36.632;-64.318;2022-12-29T04:11:28;14.80;36.10
23053;DHT22;11694;-36.632;-64.318;2022-12-29T04:13:55;14.60;41.20
23053;DHT22;11694;-36.632;-64.318;2022-12-29T04:16:22;14.50;52.40
23053;DHT22;11694;-36.632;-64.318;2022-12-29T04:18:49;14.30;56.10
23053;DHT22;11694;-36.632;-64.318;2022-12-29T04:21:16;14.20;58.10
23053;DHT22;11694;-36.632;-64.318;2022-12-29T04:23:44;14.20;50.60
23053;DHT22;11694;-36.632;-64.318;2022-12-29T04:26:11;14.20;51.20
23053;DHT22;11694;-36.632;-64.318;2022-12-29T04:28:38;14.30;54.00
23053;DHT22;11694;-36.632;-64.318;2022-12-29T04:31:06;14.30;48.70
23053;DHT22;11694;-36.632;-64.318;2022-12-29T04:33:33;14.40;31.70
23053;DHT22;11694;-36.632;-64.318;2022-12-29T04:36:00;14.40;40.60
23053;DHT22;11694;-36.632;-64.318;2022-12-29T04:38:27;14.40;52.50
23053;DHT22;11694;-36.632;-64.318;2022-12-29T04:40:54;14.30;58.00
23053;DHT22;11694;-36.632;-64.318;2022-12-29T04:43:21;14.20;58.70
23053;DHT22;11694;-36.632;-64.318;2022-12-29T04:45:49;14.20;55.80
23053;DHT22;11694;-36.632;-64.318;2022-12-29T04:48:16;14.20;58.30
23053;DHT22;11694;-36.632;-64.318;2022-12-29T04:50:44;14.10;61.60
23053;DHT22;11694;-36.632;-64.318;2022-12-29T04:53:11;14.00;70.00
23053;DHT22;11694;-36.632;-64.318;2022-12-29T04:55:38;14.00;73.10
23053;DHT22;11694;-36.632;-64.318;2022-12-29T04:58:05;14.00;78.50
23053;DHT22;11694;-36.632;-64.318;2022-12-29T05:00:32;14.00;81.30
23053;DHT22;11694;-36.632;-64.318;2022-12-29T05:02:59;13.90;85.10
23053;DHT22;11694;-36.632;-64.318;2022-12-29T05:05:27;13.80;88.70
23053;DHT22;11694;-36.632;-64.318;2022-12-29T05:07:54;13.70;87.60
23053;DHT22;11694;-36.632;-64.318;2022-12-29T05:10:21;13.60;79.70
23053;DHT22;11694;-36.632;-64.318;2022-12-29T05:12:48;13.50;77.70
23053;DHT22;11694;-36.632;-64.318;2022-12-29T05:15:15;13.60;80.50
23053;DHT22;11694;-36.632;-64.318;2022-12-29T05:17:42;13.50;80.40
23053;DHT22;11694;-36.632;-64.318;2022-12-29T05:20:10;13.40;86.90
23053;DHT22;11694;-36.632;-64.318;2022-12-29T05:22:37;13.30;92.60
23053;DHT22;11694;-36.632;-64.318;2022-12-29T05:25:05;13.10;97.30
23053;DHT22;11694;-36.632;-64.318;2022-12-29T05:27:32;13.10;97.20
23053;DHT22;11694;-36.632;-64.318;2022-12-29T05:29:59;13.10;97.70
23053;DHT22;11694;-36.632;-64.318;2022-12-29T05:32:26;13.00;97.50
23053;DHT22;11694;-36.632;-64.318;2022-12-29T05:34:53;13.10;98.80
23053;DHT22;11694;-36.632;-64.318;2022-12-29T05:37:20;13.10;98.80
23053;DHT22;11694;-36.632;-64.318;2022-12-29T05:39:47;13.10;97.80
23053;DHT22;11694;-36.632;-64.318;2022-12-29T05:42:14;13.00;98.20
23053;DHT22;11694;-36.632;-64.318;2022-12-29T05:44:41;12.90;99.30
23053;DHT22;11694;-36.632;-64.318;2022-12-29T05:47:08;12.90;99.90
23053;DHT22;11694;-36.632;-64.318;2022-12-29T05:49:35;12.70;99.90
23053;DHT22;11694;-36.632;-64.318;2022-12-29T05:52:02;12.80;99.90
23053;DHT22;11694;-36.632;-64.318;2022-12-29T05:54:30;12.90;99.90
23053;DHT22;11694;-36.632;-64.318;2022-12-29T05:56:57;12.90;99.90
23053;DHT22;11694;-36.632;-64.318;2022-12-29T05:59:24;12.90;99.90
23053;DHT22;11694;-36.632;-64.318;2022-12-29T06:01:51;12.90;99.90
23053;DHT22;11694;-36.632;-64.318;2022-12-29T06:04:18;12.70;99.90
23053;DHT22;11694;-36.632;-64.318;2022-12-29T06:06:45;12.70;99.90
23053;DHT22;11694;-36.632;-64.318;2022-12-29T06:09:12;12.70;99.90
23053;DHT22;11694;-36.632;-64.318;2022-12-29T06:11:39;12.80;96.00
23053;DHT22;11694;-36.632;-64.318;2022-12-29T06:14:07;12.90;96.80
23053;DHT22;11694;-36.632;-64.318;2022-12-29T06:16:34;12.80;93.90
23053;DHT22;11694;-36.632;-64.318;2022-12-29T06:19:02;12.70;93.70
23053;DHT22;11694;-36.632;-64.318;2022-12-29T06:21:29;12.60;97.30
23053;DHT22;11694;-36.632;-64.318;2022-12-29T06:23:56;12.40;98.00
23053;DHT22;11694;-36.632;-64.318;2022-12-29T06:26:23;12.30;99.90
23053;DHT22;11694;-36.632;-64.318;2022-12-29T06:28:50;12.30;99.90
23053;DHT22;11694;-36.632;-64.318;2022-12-29T06:31:17;12.10;99.90
23053;DHT22;11694;-36.632;-64.318;2022-12-29T06:33:47;12.10;99.90
23053;DHT22;11694;-36.632;-64.318;2022-12-29T06:36:14;12.10;99.90
23053;DHT22;11694;-36.632;-64.318;2022-12-29T06:38:41;12.10;99.90
23053;DHT22;11694;-36.632;-64.318;2022-12-29T06:41:08;12.00;99.90
23053;DHT22;11694;-36.632;-64.318;2022-12-29T06:43:35;12.10;99.90
23053;DHT22;11694;-36.632;-64.318;2022-12-29T06:46:05;12.20;99.90
23053;DHT22;11694;-36.632;-64.318;2022-12-29T06:48:32;12.20;99.90
23053;DHT22;11694;-36.632;-64.318;2022-12-29T06:50:59;12.20;99.90
23053;DHT22;11694;-36.632;-64.318;2022-12-29T06:53:26;12.10;99.90
23053;DHT22;11694;-36.632;-64.318;2022-12-29T06:55:53;12.00;99.90
23053;DHT22;11694;-36.632;-64.318;2022-12-29T06:58:20;12.10;99.90
23053;DHT22;11694;-36.632;-64.318;2022-12-29T07:00:47;12.10;99.90
23053;DHT22;11694;-36.632;-64.318;2022-12-29T07:03:15;12.10;99.90
23053;DHT22;11694;-36.632;-64.318;2022-12-29T07:05:42;12.10;99.90
23053;DHT22;11694;-36.632;-64.318;2022-12-29T07:08:09;12.00;99.90
23053;DHT22;11694;-36.632;-64.318;2022-12-29T07:10:36;11.80;99.90
23053;DHT22;11694;-36.632;-64.318;2022-12-29T07:13:03;11.80;99.90
23053;DHT22;11694;-36.632;-64.318;2022-12-29T07:15:30;11.80;99.90
23053;DHT22;11694;-36.632;-64.318;2022-12-29T07:17:57;11.80;99.90
23053;DHT22;11694;-36.632;-64.318;2022-12-29T07:20:24;11.90;99.90
23053;DHT22;11694;-36.632;-64.318;2022-12-29T07:22:51;11.90;99.90
23053;DHT22;11694;-36.632;-64.318;2022-12-29T07:25:18;11.90;99.90
23053;DHT22;11694;-36.632;-64.318;2022-12-29T07:27:45;11.90;98.70
23053;DHT22;11694;-36.632;-64.318;2022-12-29T07:30:12;12.00;99.90
23053;DHT22;11694;-36.632;-64.318;2022-12-29T07:32:39;12.00;99.90
23053;DHT22;11694;-36.632;-64.318;2022-12-29T07:35:07;12.10;99.90
23053;DHT22;11694;-36.632;-64.318;2022-12-29T07:37:34;12.10;99.90
23053;DHT22;11694;-36.632;-64.318;2022-12-29T07:40:02;12.10;99.90
23053;DHT22;11694;-36.632;-64.318;2022-12-29T07:42:30;12.10;99.90
23053;DHT22;11694;-36.632;-64.318;2022-12-29T07:44:57;12.10;99.90
23053;DHT22;11694;-36.632;-64.318;2022-12-29T07:47:25;12.20;99.90
23053;DHT22;11694;-36.632;-64.318;2022-12-29T07:49:52;12.30;99.90
23053;DHT22;11694;-36.632;-64.318;2022-12-29T07:52:19;12.40;99.90
23053;DHT22;11694;-36.632;-64.318;2022-12-29T07:54:46;12.50;99.90
23053;DHT22;11694;-36.632;-64.318;2022-12-29T07:57:13;12.50;99.90
23053;DHT22;11694;-36.632;-64.318;2022-12-29T07:59:40;12.60;99.90
23053;DHT22;11694;-36.632;-64.318;2022-12-29T08:02:10;12.60;99.90
23053;DHT22;11694;-36.632;-64.318;2022-12-29T08:04:38;12.60;99.90
23053;DHT22;11694;-36.632;-64.318;2022-12-29T08:07:05;12.50;99.90
23053;DHT22;11694;-36.632;-64.318;2022-12-29T08:09:32;12.20;99.90
23053;DHT22;11694;-36.632;-64.318;2022-12-29T08:11:59;12.10;99.90
23053;DHT22;11694;-36.632;-64.318;2022-12-29T08:14:26;12.10;99.90
23053;DHT22;11694;-36.632;-64.318;2022-12-29T08:16:53;12.20;99.90
23053;DHT22;11694;-36.632;-64.318;2022-12-29T08:19:20;12.10;99.90
23053;DHT22;11694;-36.632;-64.318;2022-12-29T08:21:47;11.90;99.90
23053;DHT22;11694;-36.632;-64.318;2022-12-29T08:24:14;11.70;99.90
23053;DHT22;11694;-36.632;-64.318;2022-12-29T08:26:41;11.50;99.90
23053;DHT22;11694;-36.632;-64.318;2022-12-29T08:29:08;11.40;99.90
23053;DHT22;11694;-36.632;-64.318;2022-12-29T08:31:35;11.50;99.90
23053;DHT22;11694;-36.632;-64.318;2022-12-29T08:34:03;11.80;99.90
23053;DHT22;11694;-36.632;-64.318;2022-12-29T08:36:30;11.80;99.90
23053;DHT22;11694;-36.632;-64.318;2022-12-29T08:38:57;11.70;99.90
23053;DHT22;11694;-36.632;-64.318;2022-12-29T08:41:24;11.60;99.90
23053;DHT22;11694;-36.632;-64.318;2022-12-29T08:43:52;11.60;99.90
23053;DHT22;11694;-36.632;-64.318;2022-12-29T08:46:19;11.60;99.90
23053;DHT22;11694;-36.632;-64.318;2022-12-29T08:48:46;11.60;99.90
23053;DHT22;11694;-36.632;-64.318;2022-12-29T08:51:13;11.70;99.90
23053;DHT22;11694;-36.632;-64.318;2022-12-29T08:53:40;11.80;99.90
23053;DHT22;11694;-36.632;-64.318;2022-12-29T08:56:09;11.80;99.90
23053;DHT22;11694;-36.632;-64.318;2022-12-29T08:58:37;11.60;99.90
23053;DHT22;11694;-36.632;-64.318;2022-12-29T09:01:05;11.60;99.90
23053;DHT22;11694;-36.632;-64.318;2022-12-29T09:03:32;11.60;99.90
23053;DHT22;11694;-36.632;-64.318;2022-12-29T09:05:59;11.60;99.90
23053;DHT22;11694;-36.632;-64.318;2022-12-29T09:08:26;11.60;99.90
23053;DHT22;11694;-36.632;-64.318;2022-12-29T09:10:54;11.50;94.90
23053;DHT22;11694;-36.632;-64.318;2022-12-29T09:13:21;11.60;79.50
23053;DHT22;11694;-36.632;-64.318;2022-12-29T09:15:48;11.60;69.70
23053;DHT22;11694;-36.632;-64.318;2022-12-29T09:18:15;11.60;68.10
23053;DHT22;11694;-36.632;-64.318;2022-12-29T09:20:42;11.60;57.00
23053;DHT22;11694;-36.632;-64.318;2022-12-29T09:23:10;11.50;55.60
23053;DHT22;11694;-36.632;-64.318;2022-12-29T09:25:38;11.60;56.90
23053;DHT22;11694;-36.632;-64.318;2022-12-29T09:28:05;11.70;46.10
23053;DHT22;11694;-36.632;-64.318;2022-12-29T09:30:34;11.70;49.90
23053;DHT22;11694;-36.632;-64.318;2022-12-29T09:33:02;11.70;38.00
23053;DHT22;11694;-36.632;-64.318;2022-12-29T09:35:29;11.80;46.60
23053;DHT22;11694;-36.632;-64.318;2022-12-29T09:37:56;11.90;44.40
23053;DHT22;11694;-36.632;-64.318;2022-12-29T09:40:32;11.90;45.40
23053;DHT22;11694;-36.632;-64.318;2022-12-29T09:48:31;12.10;22.50
23053;DHT22;11694;-36.632;-64.318;2022-12-29T09:51:03;12.20;25.50
23053;DHT22;11694;-36.632;-64.318;2022-12-29T09:53:46;12.40;23.10
23053;DHT22;11694;-36.632;-64.318;2022-12-29T09:56:21;12.40;20.00
23053;DHT22;11694;-36.632;-64.318;2022-12-29T09:58:59;12.60;22.50
23053;DHT22;11694;-36.632;-64.318;2022-12-29T10:01:46;12.70;8.50
23053;DHT22;11694;-36.632;-64.318;2022-12-29T10:04:16;12.90;1.00
23053;DHT22;11694;-36.632;-64.318;2022-12-29T10:25:29;16.80;1.00
23053;DHT22;11694;-36.632;-64.318;2022-12-29T10:28:00;17.30;1.00
23053;DHT22;11694;-36.632;-64.318;2022-12-29T10:30:30;17.80;99.90
23053;DHT22;11694;-36.632;-64.318;2022-12-29T10:33:11;18.10;99.90
23053;DHT22;11694;-36.632;-64.318;2022-12-29T10:35:42;18.30;99.90
23053;DHT22;11694;-36.632;-64.318;2022-12-29T10:38:23;18.70;99.90
23053;DHT22;11694;-36.632;-64.318;2022-12-29T10:41:15;19.00;99.90
23053;DHT22;11694;-36.632;-64.318;2022-12-29T10:43:50;19.50;99.90
23053;DHT22;11694;-36.632;-64.318;2022-12-29T10:46:29;19.90;99.90
23053;DHT22;11694;-36.632;-64.318;2022-12-29T10:48:57;20.00;99.90
23053;DHT22;11694;-36.632;-64.318;2022-12-29T10:51:32;19.50;99.90
23053;DHT22;11694;-36.632;-64.318;2022-12-29T10:54:03;18.60;99.90
23053;DHT22;11694;-36.632;-64.318;2022-12-29T10:59:24;17.80;99.90
23053;DHT22;11694;-36.632;-64.318;2022-12-29T11:07:08;17.60;99.90
23053;DHT22;11694;-36.632;-64.318;2022-12-29T11:09:38;17.90;99.90
23053;DHT22;11694;-36.632;-64.318;2022-12-29T11:14:47;18.60;99.90
23053;DHT22;11694;-36.632;-64.318;2022-12-29T11:17:17;18.90;99.90
23053;DHT22;11694;-36.632;-64.318;2022-12-29T11:19:45;19.30;99.90
23053;DHT22;11694;-36.632;-64.318;2022-12-29T11:22:22;19.80;99.90
23053;DHT22;11694;-36.632;-64.318;2022-12-29T11:24:51;20.10;99.90
23053;DHT22;11694;-36.632;-64.318;2022-12-29T11:27:26;20.60;99.90
23053;DHT22;11694;-36.632;-64.318;2022-12-29T11:29:53;21.10;99.90
23053;DHT22;11694;-36.632;-64.318;2022-12-29T11:32:26;21.40;99.90
23053;DHT22;11694;-36.632;-64.318;2022-12-29T11:34:53;22.10;99.90
23053;DHT22;11694;-36.632;-64.318;2022-12-29T11:37:39;23.20;99.90
23053;DHT22;11694;-36.632;-64.318;2022-12-29T11:40:21;24.30;99.90
23053;DHT22;11694;-36.632;-64.318;2022-12-29T11:43:04;25.10;99.90
23053;DHT22;11694;-36.632;-64.318;2022-12-29T11:45:35;25.70;99.90
23053;DHT22;11694;-36.632;-64.318;2022-12-29T11:48:20;26.30;89.70
23053;DHT22;11694;-36.632;-64.318;2022-12-29T11:50:55;26.60;66.00
23053;DHT22;11694;-36.632;-64.318;2022-12-29T11:53:50;27.00;60.10
23053;DHT22;11694;-36.632;-64.318;2022-12-29T11:56:35;27.50;41.40
23053;DHT22;11694;-36.632;-64.318;2022-12-29T11:59:36;27.50;27.00
23053;DHT22;11694;-36.632;-64.318;2022-12-29T12:02:38;27.80;21.00
23053;DHT22;11694;-36.632;-64.318;2022-12-29T12:05:33;28.20;38.00
23053;DHT22;11694;-36.632;-64.318;2022-12-29T12:11:25;29.20;5.60
23053;DHT22;11694;-36.632;-64.318;2022-12-29T12:14:02;29.10;6.00
23053;DHT22;11694;-36.632;-64.318;2022-12-29T12:16:48;29.40;5.70
23053;DHT22;11694;-36.632;-64.318;2022-12-29T12:24:49;30.50;1.00
23053;DHT22;11694;-36.632;-64.318;2022-12-29T12:27:52;30.70;1.00
23053;DHT22;11694;-36.632;-64.318;2022-12-29T12:30:26;31.10;1.00
23053;DHT22;11694;-36.632;-64.318;2022-12-29T12:33:03;31.30;1.00
23053;DHT22;11694;-36.632;-64.318;2022-12-29T12:42:05;31.30;1.00
23053;DHT22;11694;-36.632;-64.318;2022-12-29T12:55:58;31.80;1.00
23053;DHT22;11694;-36.632;-64.318;2022-12-29T13:06:55;32.30;1.00
23053;DHT22;11694;-36.632;-64.318;2022-12-29T13:15:41;32.80;1.00
23053;DHT22;11694;-36.632;-64.318;2022-12-29T13:17:43;32.80;1.00
23053;DHT22;11694;-36.632;-64.318;2022-12-29T13:20:28;32.80;1.00
23053;DHT22;11694;-36.632;-64.318;2022-12-29T13:28:23;33.20;1.00
23053;DHT22;11694;-36.632;-64.318;2022-12-29T13:33:58;33.60;1.00
23053;DHT22;11694;-36.632;-64.318;2022-12-29T13:39:12;33.40;1.00
23053;DHT22;11694;-36.632;-64.318;2022-12-29T13:41:48;33.70;1.00
23053;DHT22;11694;-36.632;-64.318;2022-12-29T13:44:24;33.90;1.00
23053;DHT22;11694;-36.632;-64.318;2022-12-29T13:46:53;34.00;1.00
23053;DHT22;11694;-36.632;-64.318;2022-12-29T13:49:22;34.00;1.00
23053;DHT22;11694;-36.632;-64.318;2022-12-29T13:51:58;33.90;1.00
23053;DHT22;11694;-36.632;-64.318;2022-12-29T13:59:58;34.80;1.00
23053;DHT22;11694;-36.632;-64.318;2022-12-29T14:07:49;35.00;1.00
23053;DHT22;11694;-36.632;-64.318;2022-12-29T14:10:33;35.30;1.00
23053;DHT22;11694;-36.632;-64.318;2022-12-29T14:13:14;35.50;1.00
23053;DHT22;11694;-36.632;-64.318;2022-12-29T14:15:44;35.30;1.00
23053;DHT22;11694;-36.632;-64.318;2022-12-29T14:18:13;35.60;1.00
23053;DHT22;11694;-36.632;-64.318;2022-12-29T14:23:44;35.90;1.00
23053;DHT22;11694;-36.632;-64.318;2022-12-29T14:28:57;35.50;1.00
23053;DHT22;11694;-36.632;-64.318;2022-12-29T14:31:42;35.50;1.00
23053;DHT22;11694;-36.632;-64.318;2022-12-29T14:42:14;35.30;1.00
23053;DHT22;11694;-36.632;-64.318;2022-12-29T14:45:01;35.60;1.00
23053;DHT22;11694;-36.632;-64.318;2022-12-29T14:47:38;36.00;1.00
23053;DHT22;11694;-36.632;-64.318;2022-12-29T14:52:54;36.10;1.00
23053;DHT22;11694;-36.632;-64.318;2022-12-29T14:55:37;36.90;1.00
23053;DHT22;11694;-36.632;-64.318;2022-12-29T14:58:17;36.90;1.00
23053;DHT22;11694;-36.632;-64.318;2022-12-29T15:00:46;36.50;1.00
23053;DHT22;11694;-36.632;-64.318;2022-12-29T15:03:32;36.50;1.00
23053;DHT22;11694;-36.632;-64.318;2022-12-29T15:06:05;36.50;1.00
23053;DHT22;11694;-36.632;-64.318;2022-12-29T15:14:51;37.60;1.00
23053;DHT22;11694;-36.632;-64.318;2022-12-29T15:17:28;37.10;1.00
23053;DHT22;11694;-36.632;-64.318;2022-12-29T15:19:57;36.70;1.00
23053;DHT22;11694;-36.632;-64.318;2022-12-29T15:22:25;36.20;1.00
23053;DHT22;11694;-36.632;-64.318;2022-12-29T15:24:53;36.30;1.00
23053;DHT22;11694;-36.632;-64.318;2022-12-29T15:27:25;36.50;1.00
23053;DHT22;11694;-36.632;-64.318;2022-12-29T15:30:00;36.30;1.00
23053;DHT22;11694;-36.632;-64.318;2022-12-29T15:32:44;36.40;1.00
23053;DHT22;11694;-36.632;-64.318;2022-12-29T15:35:35;36.80;1.00
23053;DHT22;11694;-36.632;-64.318;2022-12-29T15:38:15;37.20;1.00
23053;DHT22;11694;-36.632;-64.318;2022-12-29T15:40:46;37.10;1.00
23053;DHT22;11694;-36.632;-64.318;2022-12-29T15:44:20;36.80;1.00
23053;DHT22;11694;-36.632;-64.318;2022-12-29T15:46:29;36.90;1.00
23053;DHT22;11694;-36.632;-64.318;2022-12-29T15:48:57;36.90;1.00
23053;DHT22;11694;-36.632;-64.318;2022-12-29T15:51:44;36.70;1.00
23053;DHT22;11694;-36.632;-64.318;2022-12-29T15:54:16;36.90;1.00
23053;DHT22;11694;-36.632;-64.318;2022-12-29T15:56:46;36.80;1.00
23053;DHT22;11694;-36.632;-64.318;2022-12-29T15:59:32;36.80;1.00
23053;DHT22;11694;-36.632;-64.318;2022-12-29T16:02:01;37.40;1.00
23053;DHT22;11694;-36.632;-64.318;2022-12-29T16:04:32;37.70;1.00
23053;DHT22;11694;-36.632;-64.318;2022-12-29T16:07:05;37.50;1.00
23053;DHT22;11694;-36.632;-64.318;2022-12-29T16:09:42;36.90;1.00
23053;DHT22;11694;-36.632;-64.318;2022-12-29T16:12:18;36.80;1.00
23053;DHT22;11694;-36.632;-64.318;2022-12-29T16:14:54;37.10;1.00
23053;DHT22;11694;-36.632;-64.318;2022-12-29T16:17:25;37.50;1.00
23053;DHT22;11694;-36.632;-64.318;2022-12-29T16:20:15;37.70;1.00
23053;DHT22;11694;-36.632;-64.318;2022-12-29T16:22:48;37.70;1.00
23053;DHT22;11694;-36.632;-64.318;2022-12-29T16:25:31;37.80;1.00
23053;DHT22;11694;-36.632;-64.318;2022-12-29T16:28:02;38.20;1.00
23053;DHT22;11694;-36.632;-64.318;2022-12-29T16:30:32;37.70;1.00
23053;DHT22;11694;-36.632;-64.318;2022-12-29T16:33:03;37.10;1.00
23053;DHT22;11694;-36.632;-64.318;2022-12-29T16:35:44;37.30;1.00
23053;DHT22;11694;-36.632;-64.318;2022-12-29T16:38:16;37.60;1.00
23053;DHT22;11694;-36.632;-64.318;2022-12-29T16:40:59;37.70;1.00
23053;DHT22;11694;-36.632;-64.318;2022-12-29T16:43:31;37.80;1.00
23053;DHT22;11694;-36.632;-64.318;2022-12-29T16:48:47;37.40;1.00
23053;DHT22;11694;-36.632;-64.318;2022-12-29T16:51:22;37.90;1.00
23053;DHT22;11694;-36.632;-64.318;2022-12-29T16:53:53;38.10;1.00
23053;DHT22;11694;-36.632;-64.318;2022-12-29T16:56:23;38.20;1.00
23053;DHT22;11694;-36.632;-64.318;2022-12-29T17:01:36;38.60;1.00
23053;DHT22;11694;-36.632;-64.318;2022-12-29T17:04:08;38.50;1.00
23053;DHT22;11694;-36.632;-64.318;2022-12-29T17:06:35;38.70;1.00
23053;DHT22;11694;-36.632;-64.318;2022-12-29T17:09:15;38.80;1.00
23053;DHT22;11694;-36.632;-64.318;2022-12-29T17:11:47;38.30;1.00
23053;DHT22;11694;-36.632;-64.318;2022-12-29T17:16:48;38.70;1.00
23053;DHT22;11694;-36.632;-64.318;2022-12-29T17:19:41;38.80;1.00
23053;DHT22;11694;-36.632;-64.318;2022-12-29T17:22:14;39.00;1.00
23053;DHT22;11694;-36.632;-64.318;2022-12-29T17:24:42;39.40;1.00
23053;DHT22;11694;-36.632;-64.318;2022-12-29T17:27:25;39.40;1.00
23053;DHT22;11694;-36.632;-64.318;2022-12-29T17:29:57;39.30;1.00
23053;DHT22;11694;-36.632;-64.318;2022-12-29T17:32:24;39.30;1.00
23053;DHT22;11694;-36.632;-64.318;2022-12-29T17:34:51;39.20;1.00
23053;DHT22;11694;-36.632;-64.318;2022-12-29T17:37:29;38.90;1.00
23053;DHT22;11694;-36.632;-64.318;2022-12-29T17:39:56;38.50;1.00
23053;DHT22;11694;-36.632;-64.318;2022-12-29T17:42:24;38.70;1.00
23053;DHT22;11694;-36.632;-64.318;2022-12-29T17:44:51;38.90;1.00
23053;DHT22;11694;-36.632;-64.318;2022-12-29T17:47:18;39.30;1.00
23053;DHT22;11694;-36.632;-64.318;2022-12-29T17:49:45;39.30;1.00
23053;DHT22;11694;-36.632;-64.318;2022-12-29T17:52:13;39.00;1.00
23053;DHT22;11694;-36.632;-64.318;2022-12-29T17:54:45;38.50;1.00
23053;DHT22;11694;-36.632;-64.318;2022-12-29T17:57:15;38.20;1.00
23053;DHT22;11694;-36.632;-64.318;2022-12-29T17:59:42;38.60;1.00
23053;DHT22;11694;-36.632;-64.318;2022-12-29T18:04:48;39.10;1.00
23053;DHT22;11694;-36.632;-64.318;2022-12-29T18:07:15;39.20;1.00